createdAt,value
2023-02-27T00:00:20.176Z,1.17
2023-02-27T00:02:22.051Z,0.95
2023-02-27T00:04:23.871Z,1.65
2023-02-27T00:06:25.735Z,1.50
2023-02-27T00:08:27.641Z,1.17
2023-02-27T00:10:29.445Z,1.00
2023-02-27T00:12:37.561Z,1.05
2023-02-27T00:14:41.540Z,1.23
2023-02-27T00:16:43.411Z,0.98
2023-02-27T00:18:45.185Z,1.20
2023-02-27T00:20:49.231Z,1.05
2023-02-27T00:22:51.936Z,0.90
2023-02-27T00:24:54.015Z,1.33
2023-02-27T00:26:55.881Z,1.02
2023-02-27T00:28:57.649Z,0.82
2023-02-27T00:31:02.942Z,0.90
2023-02-27T00:33:05.414Z,1.30
2023-02-27T00:35:09.593Z,1.35
2023-02-27T00:37:11.433Z,1.33
2023-02-27T00:39:14.723Z,1.17
2023-02-27T00:41:16.490Z,0.95
2023-02-27T00:43:18.335Z,1.52
2023-02-27T00:45:20.844Z,1.42
2023-02-27T00:47:22.586Z,0.70
2023-02-27T00:49:25.582Z,1.13
2023-02-27T00:51:27.883Z,1.13
2023-02-27T00:53:29.866Z,0.63
2023-02-27T00:55:31.717Z,0.60
2023-02-27T00:57:39.240Z,0.75
2023-02-27T00:59:41.380Z,0.93
2023-02-27T01:01:44.582Z,0.80
2023-02-27T01:03:46.496Z,0.85
2023-02-27T01:05:48.303Z,0.77
2023-02-27T01:07:52.491Z,1.20
2023-02-27T01:09:54.432Z,0.88
2023-02-27T01:11:57.654Z,0.60
2023-02-27T01:13:59.526Z,0.43
2023-02-27T01:16:01.346Z,1.23
2023-02-27T01:18:06.247Z,0.80
2023-02-27T01:20:09.917Z,0.80
2023-02-27T01:22:11.680Z,0.85
2023-02-27T01:24:13.528Z,0.50
2023-02-27T01:26:15.364Z,2.03
2023-02-27T01:28:17.243Z,0.70
2023-02-27T01:30:19.440Z,1.13
2023-02-27T01:32:21.307Z,0.70
2023-02-27T01:34:23.279Z,0.73
2023-02-27T01:36:27.083Z,0.73
2023-02-27T01:38:28.990Z,0.88
2023-02-27T01:40:35.018Z,0.70
2023-02-27T01:42:37.039Z,0.70
2023-02-27T01:45:06.316Z,1.00
2023-02-27T01:47:08.104Z,0.43
2023-02-27T01:49:15.415Z,0.77
2023-02-27T01:51:21.620Z,0.70
2023-02-27T01:53:26.660Z,0.90
2023-02-27T01:55:33.870Z,0.75
2023-02-27T01:57:36.692Z,0.60
2023-02-27T01:59:41.929Z,0.85
2023-02-27T02:01:46.022Z,0.60
2023-02-27T02:03:56.459Z,0.60
2023-02-27T02:06:02.563Z,0.63
2023-02-27T02:08:06.692Z,0.40
2023-02-27T02:10:12.492Z,0.60
2023-02-27T02:12:17.602Z,0.73
2023-02-27T02:14:20.049Z,0.50
2023-02-27T02:16:26.578Z,0.75
2023-02-27T02:18:42.215Z,0.70
2023-02-27T02:20:51.536Z,0.57
2023-02-27T02:23:00.307Z,0.60
2023-02-27T02:25:06.190Z,0.77
2023-02-27T02:27:12.333Z,0.50
2023-02-27T02:29:27.757Z,0.65
2023-02-27T02:31:32.075Z,0.40
2023-02-27T02:33:38.560Z,0.60
2023-02-27T02:35:47.729Z,0.52
2023-02-27T02:37:54.085Z,0.63
2023-02-27T02:39:59.400Z,0.43
2023-02-27T02:42:10.995Z,1.30
2023-02-27T02:44:16.287Z,0.70
2023-02-27T02:46:24.320Z,0.50
2023-02-27T02:48:34.082Z,0.90
2023-02-27T02:50:39.956Z,0.50
2023-02-27T02:52:51.915Z,0.70
2023-02-27T02:57:08.767Z,0.50
2023-02-27T02:59:16.940Z,1.13
2023-02-27T03:01:26.729Z,0.82
2023-02-27T03:03:34.701Z,0.55
2023-02-27T03:05:46.691Z,0.60
2023-02-27T03:07:56.745Z,0.50
2023-02-27T03:10:05.276Z,0.80
2023-02-27T03:12:10.911Z,0.98
2023-02-27T03:14:18.985Z,0.50
2023-02-27T03:16:26.469Z,0.70
2023-02-27T03:18:35.104Z,0.55
2023-02-27T03:20:44.770Z,0.52
2023-02-27T03:22:55.238Z,0.68
2023-02-27T03:25:02.961Z,0.90
2023-02-27T03:27:06.985Z,0.73
2023-02-27T03:29:11.246Z,0.68
2023-02-27T03:31:22.660Z,0.70
2023-02-27T03:33:27.103Z,0.60
2023-02-27T03:35:43.364Z,0.52
2023-02-27T03:37:51.353Z,0.60
2023-02-27T03:40:01.509Z,0.70
2023-02-27T03:42:15.752Z,1.02
2023-02-27T03:44:31.078Z,0.60
2023-02-27T03:46:33.207Z,0.50
2023-02-27T03:48:35.361Z,0.65
2023-02-27T03:50:39.799Z,0.70
2023-02-27T03:52:41.769Z,0.70
2023-02-27T03:54:53.244Z,0.95
2023-02-27T03:56:58.515Z,0.55
2023-02-27T03:59:00.349Z,0.80
2023-02-27T04:01:02.317Z,0.77
2023-02-27T04:03:05.792Z,0.80
2023-02-27T04:05:08.459Z,0.60
2023-02-27T04:07:23.545Z,0.60
2023-02-27T04:09:39.420Z,0.80
2023-02-27T04:11:47.450Z,0.45
2023-02-27T04:13:55.415Z,0.82
2023-02-27T04:16:03.533Z,0.73
2023-02-27T04:18:11.783Z,0.95
2023-02-27T04:20:17.212Z,0.80
2023-02-27T04:22:26.620Z,0.70
2023-02-27T04:24:36.636Z,0.88
2023-02-27T04:26:41.793Z,0.90
2023-02-27T04:28:51.381Z,0.60
2023-02-27T04:31:05.572Z,0.82
2023-02-27T04:33:13.759Z,0.75
2023-02-27T04:35:25.596Z,0.80
2023-02-27T04:37:31.020Z,0.77
2023-02-27T04:39:40.822Z,1.00
2023-02-27T04:41:50.437Z,0.85
2023-02-27T04:43:54.006Z,0.93
2023-02-27T04:45:59.893Z,0.90
2023-02-27T04:48:08.643Z,1.17
2023-02-27T04:50:15.710Z,1.02
2023-02-27T04:52:24.712Z,0.90
2023-02-27T04:54:34.177Z,0.75
2023-02-27T04:56:42.120Z,1.13
2023-02-27T04:58:50.718Z,0.70
2023-02-27T05:00:59.793Z,0.70
2023-02-27T05:03:11.653Z,0.77
2023-02-27T05:05:19.326Z,0.60
2023-02-27T05:07:27.883Z,1.23
2023-02-27T05:09:31.926Z,0.93
2023-02-27T05:11:41.322Z,0.88
2023-02-27T05:13:51.336Z,0.60
2023-02-27T05:15:59.952Z,0.70
2023-02-27T05:18:08.765Z,1.40
2023-02-27T05:20:12.736Z,0.68
2023-02-27T05:22:20.746Z,0.70
2023-02-27T05:24:32.670Z,1.00
2023-02-27T05:26:38.135Z,1.35
2023-02-27T05:28:45.022Z,1.10
2023-02-27T05:30:53.078Z,0.80
2023-02-27T05:32:58.347Z,1.23
2023-02-27T05:35:06.356Z,0.70
2023-02-27T05:37:15.064Z,1.02
2023-02-27T05:39:19.861Z,1.38
2023-02-27T05:41:28.044Z,1.00
2023-02-27T05:43:36.182Z,1.45
2023-02-27T05:45:41.116Z,0.80
2023-02-27T05:47:49.068Z,1.13
2023-02-27T05:49:59.810Z,0.98
2023-02-27T05:54:15.959Z,1.23
2023-02-27T05:56:21.778Z,1.10
2023-02-27T05:58:29.945Z,0.82
2023-02-27T06:00:38.072Z,1.00
2023-02-27T06:02:41.431Z,1.00
2023-02-27T06:04:45.299Z,0.70
2023-02-27T06:06:48.300Z,0.90
2023-02-27T06:08:50.105Z,0.80
2023-02-27T06:10:52.111Z,0.90
2023-02-27T06:12:54.045Z,1.05
2023-02-27T06:14:55.781Z,1.45
2023-02-27T06:16:57.630Z,1.45
2023-02-27T06:19:03.455Z,1.02
2023-02-27T06:21:06.830Z,1.33
2023-02-27T06:23:08.734Z,0.73
2023-02-27T06:25:11.266Z,1.08
2023-02-27T06:27:16.073Z,1.10
2023-02-27T06:29:17.894Z,0.80
2023-02-27T06:31:19.782Z,1.08
2023-02-27T06:33:21.743Z,0.95
2023-02-27T06:35:26.764Z,0.80
2023-02-27T06:37:31.727Z,1.00
2023-02-27T06:39:33.521Z,0.70
2023-02-27T06:41:37.770Z,1.10
2023-02-27T06:43:39.541Z,1.15
2023-02-27T06:45:43.645Z,1.00
2023-02-27T06:47:45.530Z,1.88
2023-02-27T06:49:47.335Z,1.38
2023-02-27T06:51:49.185Z,0.80
2023-02-27T06:53:51.068Z,1.88
2023-02-27T06:55:53.144Z,1.75
2023-02-27T06:57:54.973Z,1.38
2023-02-27T06:59:56.910Z,1.48
2023-02-27T07:02:00.566Z,1.17
2023-02-27T07:04:04.692Z,1.23
2023-02-27T07:06:09.245Z,1.35
2023-02-27T07:08:11.610Z,1.25
2023-02-27T07:10:14.741Z,0.80
2023-02-27T07:12:16.714Z,1.13
2023-02-27T07:14:18.674Z,1.55
2023-02-27T07:16:20.529Z,1.08
2023-02-27T07:18:22.345Z,0.90
2023-02-27T07:20:24.358Z,1.08
2023-02-27T07:22:26.160Z,1.17
2023-02-27T07:24:28.000Z,0.60
2023-02-27T07:26:30.204Z,1.08
2023-02-27T07:28:32.203Z,1.92
2023-02-27T07:30:34.507Z,1.10
2023-02-27T07:32:36.431Z,0.80
2023-02-27T07:34:38.496Z,1.10
2023-02-27T07:36:40.506Z,1.67
2023-02-27T07:38:42.346Z,1.35
2023-02-27T07:40:44.166Z,1.25
2023-02-27T07:42:48.343Z,0.93
2023-02-27T07:44:52.612Z,1.42
2023-02-27T07:46:54.499Z,1.30
2023-02-27T07:48:56.532Z,1.00
2023-02-27T07:50:58.398Z,1.10
2023-02-27T07:53:00.224Z,1.13
2023-02-27T07:55:37.114Z,0.98
2023-02-27T07:57:39.165Z,1.10
2023-02-27T07:59:41.183Z,1.05
2023-02-27T08:01:43.114Z,1.25
2023-02-27T08:03:50.061Z,1.13
2023-02-27T08:05:52.123Z,1.02
2023-02-27T08:07:54.117Z,1.30
2023-02-27T08:09:55.985Z,1.00
2023-02-27T08:11:59.041Z,0.75
2023-02-27T08:14:02.089Z,0.82
2023-02-27T08:16:05.946Z,2.47
2023-02-27T08:18:08.568Z,1.20
2023-02-27T08:20:12.113Z,1.15
2023-02-27T08:22:14.148Z,1.00
2023-02-27T08:24:16.341Z,1.10
2023-02-27T08:26:18.620Z,1.13
2023-02-27T08:28:20.800Z,1.00
2023-02-27T08:30:23.044Z,1.02
2023-02-27T08:32:25.302Z,1.52
2023-02-27T08:34:27.672Z,1.13
2023-02-27T08:36:29.926Z,1.40
2023-02-27T08:38:32.136Z,1.50
2023-02-27T08:40:34.221Z,1.33
2023-02-27T08:42:36.184Z,1.45
2023-02-27T08:44:40.713Z,1.30
2023-02-27T08:46:42.706Z,0.90
2023-02-27T08:48:45.019Z,0.88
2023-02-27T08:50:47.870Z,1.50
2023-02-27T08:52:49.830Z,1.25
2023-02-27T08:54:52.204Z,1.42
2023-02-27T08:56:54.381Z,2.38
2023-02-27T08:58:57.712Z,1.25
2023-02-27T09:01:00.110Z,1.30
2023-02-27T09:03:02.789Z,0.80
2023-02-27T09:05:05.880Z,1.30
2023-02-27T09:07:08.357Z,0.82
2023-02-27T09:09:10.876Z,1.30
2023-02-27T09:11:12.881Z,1.83
2023-02-27T09:13:17.385Z,1.20
2023-02-27T09:15:19.888Z,1.13
2023-02-27T09:17:25.106Z,1.60
2023-02-27T09:19:27.925Z,2.20
2023-02-27T09:21:30.071Z,1.70
2023-02-27T09:23:32.401Z,1.17
2023-02-27T09:25:35.532Z,1.42
2023-02-27T09:27:37.698Z,1.20
2023-02-27T09:29:39.827Z,1.10
2023-02-27T09:31:44.958Z,1.33
2023-02-27T09:33:47.440Z,1.02
2023-02-27T09:35:49.559Z,1.20
2023-02-27T09:37:52.226Z,1.35
2023-02-27T09:39:54.520Z,1.23
2023-02-27T09:42:00.307Z,1.30
2023-02-27T09:44:02.983Z,1.15
2023-02-27T09:46:08.053Z,1.13
2023-02-27T09:48:26.861Z,1.38
2023-02-27T09:50:35.827Z,1.77
2023-02-27T09:52:38.106Z,1.42
2023-02-27T09:54:40.944Z,0.90
2023-02-27T09:56:49.779Z,0.95
2023-02-27T09:59:03.132Z,1.02
2023-02-27T10:01:14.382Z,0.93
2023-02-27T10:03:19.918Z,0.90
2023-02-27T10:05:24.226Z,1.30
2023-02-27T10:07:30.923Z,1.27
2023-02-27T10:09:39.660Z,1.05
2023-02-27T10:11:47.620Z,1.08
2023-02-27T10:13:57.574Z,0.93
2023-02-27T10:16:00.901Z,1.20
2023-02-27T10:18:25.537Z,1.20
2023-02-27T10:20:34.141Z,1.70
2023-02-27T10:22:42.223Z,1.10
2023-02-27T10:24:51.401Z,1.60
2023-02-27T10:26:57.408Z,1.38
2023-02-27T10:29:14.310Z,1.20
2023-02-27T10:31:21.515Z,1.27
2023-02-27T10:33:28.355Z,0.95
2023-02-27T10:35:35.291Z,0.88
2023-02-27T10:37:45.578Z,0.60
2023-02-27T10:39:52.370Z,0.73
2023-02-27T10:42:06.065Z,0.70
2023-02-27T10:44:09.870Z,0.70
2023-02-27T10:46:16.240Z,0.90
2023-02-27T10:48:23.284Z,0.60
2023-02-27T10:50:29.200Z,0.80
2023-02-27T10:52:31.438Z,0.60
2023-02-27T10:54:33.420Z,0.80
2023-02-27T10:56:39.546Z,0.68
2023-02-27T10:58:41.486Z,0.65
2023-02-27T11:00:52.670Z,0.70
2023-02-27T11:02:55.427Z,0.70
2023-02-27T11:05:00.523Z,0.70
2023-02-27T11:07:09.104Z,0.77
2023-02-27T11:09:17.384Z,0.70
2023-02-27T11:11:30.469Z,1.48
2023-02-27T11:13:36.814Z,0.70
2023-02-27T11:15:39.116Z,0.80
2023-02-27T11:17:41.987Z,0.65
2023-02-27T11:19:44.175Z,0.60
2023-02-27T11:22:01.827Z,0.90
2023-02-27T11:24:18.124Z,0.93
2023-02-27T11:26:27.056Z,0.70
2023-02-27T11:28:30.829Z,0.50
2023-02-27T11:30:32.994Z,0.90
2023-02-27T11:32:41.384Z,0.80
2023-02-27T11:34:49.148Z,1.30
2023-02-27T11:36:55.954Z,0.90
2023-02-27T11:38:57.951Z,1.02
2023-02-27T11:41:02.229Z,0.70
2023-02-27T11:43:15.141Z,0.80
2023-02-27T11:46:13.569Z,1.00
2023-02-27T11:47:48.886Z,0.60
2023-02-27T11:49:57.612Z,1.63
2023-02-27T11:52:04.140Z,0.93
2023-02-27T11:54:12.368Z,1.00
2023-02-27T11:56:23.081Z,0.55
2023-02-27T11:58:29.746Z,0.50
2023-02-27T12:00:44.615Z,0.60
2023-02-27T12:02:58.569Z,0.40
2023-02-27T12:05:05.536Z,0.40
2023-02-27T12:07:10.898Z,0.60
2023-02-27T12:09:17.814Z,0.50
2023-02-27T12:11:28.249Z,0.47
2023-02-27T12:15:41.142Z,0.47
2023-02-27T12:17:48.930Z,0.38
2023-02-27T12:20:10.737Z,0.52
2023-02-27T12:22:19.065Z,0.68
2023-02-27T12:24:29.455Z,0.45
2023-02-27T12:26:34.961Z,0.65
2023-02-27T12:28:50.493Z,0.80
2023-02-27T12:31:06.267Z,1.50
2023-02-27T12:33:14.452Z,1.65
2023-02-27T12:35:22.618Z,0.57
2023-02-27T12:37:27.797Z,0.55
2023-02-27T12:39:32.359Z,0.30
2023-02-27T12:41:42.976Z,0.40
2023-02-27T12:43:55.471Z,0.50
2023-02-27T12:46:05.508Z,0.30
2023-02-27T12:48:14.657Z,0.30
2023-02-27T12:50:21.261Z,0.50
2023-02-27T12:52:32.956Z,0.30
2023-02-27T12:54:41.302Z,0.40
2023-02-27T12:56:52.622Z,0.32
2023-02-27T12:59:03.898Z,0.52
2023-02-27T13:01:12.287Z,0.57
2023-02-27T13:03:18.858Z,0.52
2023-02-27T13:05:32.405Z,0.35
2023-02-27T13:07:39.328Z,0.30
2023-02-27T13:09:48.531Z,0.75
2023-02-27T13:12:05.748Z,0.40
2023-02-27T13:14:17.276Z,0.30
2023-02-27T13:16:25.948Z,0.43
2023-02-27T13:18:36.955Z,0.52
2023-02-27T13:20:44.657Z,0.65
2023-02-27T13:22:53.534Z,0.40
2023-02-27T13:25:00.863Z,0.43
2023-02-27T13:27:07.698Z,0.55
2023-02-27T13:29:16.190Z,0.55
2023-02-27T13:31:28.333Z,0.60
2023-02-27T13:33:39.135Z,0.35
2023-02-27T13:35:47.635Z,0.70
2023-02-27T13:37:53.539Z,0.40
2023-02-27T13:39:56.329Z,0.40
2023-02-27T13:41:58.715Z,0.60
2023-02-27T13:44:10.860Z,0.65
2023-02-27T13:46:19.513Z,0.60
2023-02-27T13:48:27.900Z,0.70
2023-02-27T13:50:30.855Z,0.60
2023-02-27T13:52:37.915Z,0.50
2023-02-27T13:54:41.758Z,0.60
2023-02-27T13:56:55.186Z,0.60
2023-02-27T13:59:12.531Z,0.50
2023-02-27T14:01:23.104Z,0.60
2023-02-27T14:05:33.431Z,0.60
2023-02-27T14:07:53.860Z,0.70
2023-02-27T14:10:02.142Z,1.23
2023-02-27T14:12:07.539Z,0.80
2023-02-27T14:14:32.684Z,1.10
2023-02-27T14:16:38.462Z,0.68
2023-02-27T14:18:46.802Z,0.50
2023-02-27T14:20:50.792Z,0.52
2023-02-27T14:22:59.265Z,0.50
2023-02-27T14:25:13.368Z,0.68
2023-02-27T14:27:24.257Z,0.60
2023-02-27T14:31:40.750Z,0.75
2023-02-27T14:33:47.143Z,0.60
2023-02-27T14:35:58.454Z,0.98
2023-02-27T14:38:09.596Z,1.10
2023-02-27T14:40:29.214Z,1.10
2023-02-27T14:42:35.899Z,0.82
2023-02-27T14:44:44.026Z,0.98
2023-02-27T14:46:46.574Z,0.80
2023-02-27T14:48:53.868Z,0.90
2023-02-27T14:50:58.286Z,0.93
2023-02-27T14:53:02.728Z,0.80
2023-02-27T14:55:16.326Z,0.90
2023-02-27T14:57:24.716Z,0.70
2023-02-27T14:59:34.267Z,0.52
2023-02-27T15:01:37.204Z,1.20
2023-02-27T15:03:45.843Z,0.85
2023-02-27T15:05:53.037Z,0.60
2023-02-27T15:07:55.308Z,0.80
2023-02-27T15:10:00.919Z,0.93
2023-02-27T15:12:05.046Z,0.68
2023-02-27T15:14:07.518Z,0.40
2023-02-27T15:16:16.966Z,0.70
2023-02-27T15:18:23.308Z,0.55
2023-02-27T15:20:30.261Z,0.40
2023-02-27T15:22:40.539Z,0.70
2023-02-27T15:24:50.388Z,1.20
2023-02-27T15:26:56.780Z,0.55
2023-02-27T15:29:00.805Z,0.75
2023-02-27T15:31:03.540Z,0.80
2023-02-27T15:33:15.751Z,0.80
2023-02-27T15:35:24.309Z,0.30
2023-02-27T15:37:31.163Z,0.68
2023-02-27T15:39:35.028Z,0.50
2023-02-27T15:41:39.866Z,0.55
2023-02-27T15:43:42.602Z,0.57
2023-02-27T15:45:45.347Z,0.43
2023-02-27T15:47:48.937Z,0.50
2023-02-27T15:49:56.323Z,0.60
2023-02-27T15:52:05.842Z,1.25
2023-02-27T15:54:10.261Z,0.50
2023-02-27T15:56:14.237Z,0.77
2023-02-27T15:58:19.926Z,0.93
2023-02-27T16:00:24.843Z,0.70
2023-02-27T16:02:30.231Z,0.55
2023-02-27T16:04:33.399Z,0.50
2023-02-27T16:06:39.795Z,0.50
2023-02-27T16:08:48.028Z,0.40
2023-02-27T16:10:51.080Z,0.55
2023-02-27T16:12:53.106Z,0.40
2023-02-27T16:15:20.271Z,0.50
2023-02-27T16:17:26.787Z,0.63
2023-02-27T16:19:32.746Z,0.60
2023-02-27T16:21:35.514Z,1.30
2023-02-27T16:23:41.142Z,0.75
2023-02-27T16:25:59.348Z,0.70
2023-02-27T16:28:01.745Z,0.68
2023-02-27T16:30:11.522Z,1.00
2023-02-27T16:32:19.803Z,0.60
2023-02-27T16:34:35.517Z,0.85
2023-02-27T16:36:52.317Z,0.73
2023-02-27T16:38:54.950Z,0.50
2023-02-27T16:40:57.609Z,0.75
2023-02-27T16:43:01.599Z,1.02
2023-02-27T16:45:08.108Z,0.77
2023-02-27T16:47:10.399Z,0.60
2023-02-27T16:49:23.452Z,1.05
2023-02-27T16:51:33.846Z,0.50
2023-02-27T16:53:38.632Z,0.90
2023-02-27T16:55:43.616Z,0.57
2023-02-27T16:57:48.607Z,0.65
2023-02-27T16:59:50.857Z,0.57
2023-02-27T17:01:54.136Z,0.95
2023-02-27T17:03:56.625Z,0.95
2023-02-27T17:05:59.503Z,0.93
2023-02-27T17:08:02.480Z,0.70
2023-02-27T17:10:07.909Z,0.50
2023-02-27T17:12:10.111Z,0.65
2023-02-27T17:14:12.242Z,0.60
2023-02-27T17:16:16.219Z,0.85
2023-02-27T17:18:18.951Z,0.90
2023-02-27T17:20:22.402Z,0.70
2023-02-27T17:22:25.516Z,0.95
2023-02-27T17:24:28.020Z,0.90
2023-02-27T17:26:31.632Z,0.80
2023-02-27T17:28:36.295Z,0.73
2023-02-27T17:30:40.300Z,0.88
2023-02-27T17:32:42.804Z,0.90
2023-02-27T17:34:45.032Z,0.75
2023-02-27T17:36:48.769Z,0.77
2023-02-27T17:38:55.463Z,0.85
2023-02-27T17:40:58.188Z,0.82
2023-02-27T17:43:00.463Z,1.30
2023-02-27T17:45:05.992Z,0.80
2023-02-27T17:47:08.635Z,1.00
2023-02-27T17:49:13.192Z,0.80
2023-02-27T17:51:17.538Z,1.15
2023-02-27T17:53:20.092Z,0.75
2023-02-27T17:55:25.547Z,0.90
2023-02-27T17:57:28.130Z,1.20
2023-02-27T17:59:30.959Z,1.25
2023-02-27T18:01:33.334Z,1.10
2023-02-27T18:03:35.560Z,1.08
2023-02-27T18:05:37.549Z,0.77
2023-02-27T18:07:39.900Z,1.10
2023-02-27T18:09:42.033Z,1.45
2023-02-27T18:11:45.602Z,0.70
2023-02-27T18:13:49.142Z,0.95
2023-02-27T18:15:51.866Z,1.10
2023-02-27T18:17:54.365Z,1.55
2023-02-27T18:19:59.259Z,0.98
2023-02-27T18:22:04.880Z,1.10
2023-02-27T18:24:07.351Z,1.58
2023-02-27T18:26:28.455Z,0.90
2023-02-27T18:28:31.057Z,1.88
2023-02-27T18:30:38.406Z,1.50
2023-02-27T18:32:42.774Z,1.20
2023-02-27T18:34:45.251Z,1.40
2023-02-27T18:36:47.489Z,1.45
2023-02-27T18:38:49.555Z,2.55
2023-02-27T18:40:51.766Z,1.58
2023-02-27T18:42:54.273Z,1.20
2023-02-27T18:44:57.116Z,1.45
2023-02-27T18:46:59.809Z,1.35
2023-02-27T18:49:02.391Z,1.73
2023-02-27T18:51:12.813Z,1.30
2023-02-27T18:53:15.273Z,0.90
2023-02-27T18:55:18.159Z,1.08
2023-02-27T18:57:20.782Z,1.38
2023-02-27T18:59:22.938Z,1.08
2023-02-27T19:01:28.857Z,1.63
2023-02-27T19:03:32.192Z,0.88
2023-02-27T19:05:40.671Z,0.98
2023-02-27T19:07:43.248Z,1.20
2023-02-27T19:09:45.392Z,0.95
2023-02-27T19:11:47.799Z,1.08
2023-02-27T19:13:49.765Z,1.02
2023-02-27T19:15:52.566Z,1.80
2023-02-27T19:17:54.966Z,1.45
2023-02-27T19:19:56.874Z,1.65
2023-02-27T19:21:59.028Z,1.50
2023-02-27T19:24:01.828Z,0.85
2023-02-27T19:26:04.163Z,1.63
2023-02-27T19:28:08.008Z,0.98
2023-02-27T19:30:11.026Z,1.00
2023-02-27T19:32:14.813Z,1.45
2023-02-27T19:34:16.959Z,1.02
2023-02-27T19:36:21.126Z,1.00
2023-02-27T19:38:25.067Z,1.13
2023-02-27T19:40:28.364Z,0.82
2023-02-27T19:42:30.514Z,0.95
2023-02-27T19:44:32.440Z,1.45
2023-02-27T19:46:35.355Z,1.13
2023-02-27T19:48:38.467Z,0.93
2023-02-27T19:50:40.801Z,1.00
2023-02-27T19:52:43.186Z,1.27
2023-02-27T19:54:45.178Z,0.82
2023-02-27T19:56:49.348Z,1.10
2023-02-27T19:58:54.500Z,1.52
2023-02-27T20:00:56.792Z,1.50
2023-02-27T20:02:58.775Z,1.10
2023-02-27T20:05:03.750Z,1.00
2023-02-27T20:07:06.234Z,0.88
2023-02-27T20:09:13.397Z,0.80
2023-02-27T20:11:17.475Z,0.75
2023-02-27T20:13:19.620Z,0.50
2023-02-27T20:15:21.899Z,0.80
2023-02-27T20:17:23.828Z,0.93
2023-02-27T20:19:26.242Z,1.00
2023-02-27T20:21:29.114Z,0.70
2023-02-27T20:23:33.893Z,0.80
2023-02-27T20:25:35.762Z,0.80
2023-02-27T20:27:38.496Z,0.60
2023-02-27T20:29:40.632Z,1.33
2023-02-27T20:31:46.935Z,1.00
2023-02-27T20:33:49.656Z,0.70
2023-02-27T20:35:51.556Z,0.80
2023-02-27T20:37:54.120Z,1.08
2023-02-27T20:39:58.981Z,0.40
2023-02-27T20:42:00.922Z,0.50
2023-02-27T20:44:04.370Z,0.43
2023-02-27T20:46:09.106Z,0.70
2023-02-27T20:48:11.384Z,0.40
2023-02-27T20:50:13.429Z,0.57
2023-02-27T20:52:15.211Z,0.75
2023-02-27T20:54:20.736Z,0.73
2023-02-27T20:56:25.133Z,0.40
2023-02-27T20:58:27.149Z,0.30
2023-02-27T21:00:33.401Z,0.40
2023-02-27T21:02:35.404Z,0.63
2023-02-27T21:04:40.916Z,0.80
2023-02-27T21:06:43.622Z,0.52
2023-02-27T21:08:49.401Z,0.50
2023-02-27T21:10:51.663Z,0.65
2023-02-27T21:12:53.628Z,0.55
2023-02-27T21:14:58.423Z,0.50
2023-02-27T21:17:01.124Z,0.50
2023-02-27T21:19:03.097Z,0.50
2023-02-27T21:21:08.589Z,0.50
2023-02-27T21:23:11.169Z,0.50
2023-02-27T21:25:13.100Z,0.60
2023-02-27T21:27:16.534Z,0.40
2023-02-27T21:29:21.210Z,0.95
2023-02-27T21:31:25.346Z,0.80
2023-02-27T21:33:27.989Z,0.73
2023-02-27T21:35:30.010Z,0.95
2023-02-27T21:37:34.506Z,0.65
2023-02-27T21:39:36.689Z,0.60
2023-02-27T21:41:38.974Z,0.70
2023-02-27T21:43:40.967Z,0.77
2023-02-27T21:45:47.579Z,0.93
2023-02-27T21:47:49.572Z,0.77
2023-02-27T21:49:52.471Z,1.05
2023-02-27T21:51:57.180Z,1.05
2023-02-27T21:54:01.622Z,1.20
2023-02-27T21:56:06.635Z,1.50
2023-02-27T21:58:10.552Z,0.93
2023-02-27T22:00:13.227Z,0.90
2023-02-27T22:02:15.174Z,1.25
2023-02-27T22:04:19.107Z,1.55
2023-02-27T22:06:23.398Z,1.02
2023-02-27T22:08:32.814Z,1.80
2023-02-27T22:10:42.936Z,1.38
2023-02-27T22:12:44.816Z,1.27
2023-02-27T22:14:47.031Z,0.90
2023-02-27T22:16:48.953Z,1.00
2023-02-27T22:18:51.953Z,1.27
2023-02-27T22:20:54.080Z,1.52
2023-02-27T22:22:59.002Z,1.80
2023-02-27T22:25:00.950Z,1.83
2023-02-27T22:27:02.971Z,1.80
2023-02-27T22:29:06.440Z,2.25
2023-02-27T22:31:10.341Z,1.75
2023-02-27T22:33:12.298Z,2.53
2023-02-27T22:35:14.157Z,2.47
2023-02-27T22:37:16.380Z,2.22
2023-02-27T22:39:18.738Z,2.00
2023-02-27T22:41:23.790Z,1.90
2023-02-27T22:43:27.851Z,1.73
2023-02-27T22:45:29.673Z,2.20
2023-02-27T22:47:31.505Z,2.25
2023-02-27T22:49:33.413Z,1.98
2023-02-27T22:51:36.835Z,1.92
2023-02-27T22:53:39.871Z,2.05
2023-02-27T22:55:41.729Z,1.48
2023-02-27T22:57:43.649Z,1.70
2023-02-27T22:59:45.650Z,1.48
2023-02-27T23:01:48.819Z,1.30
2023-02-27T23:03:52.868Z,1.50
2023-02-27T23:05:54.696Z,1.63
2023-02-27T23:07:58.586Z,1.40
2023-02-27T23:10:00.396Z,1.65
2023-02-27T23:12:03.972Z,1.90
2023-02-27T23:14:05.883Z,1.58
2023-02-27T23:16:11.646Z,1.48
2023-02-27T23:18:13.552Z,1.33
2023-02-27T23:20:15.490Z,1.38
2023-02-27T23:22:17.351Z,1.00
2023-02-27T23:24:24.096Z,1.00
2023-02-27T23:26:28.725Z,1.58
2023-02-27T23:28:31.299Z,1.25
2023-02-27T23:30:34.008Z,1.20
2023-02-27T23:32:43.617Z,1.10
2023-02-27T23:34:49.831Z,1.17
2023-02-27T23:36:52.012Z,1.17
2023-02-27T23:38:53.904Z,1.40
2023-02-27T23:40:56.360Z,1.30
2023-02-27T23:42:58.311Z,1.10
2023-02-27T23:45:03.134Z,1.35
2023-02-27T23:47:05.086Z,2.13
2023-02-27T23:49:07.193Z,1.83
2023-02-27T23:51:11.000Z,1.45
2023-02-27T23:53:13.828Z,1.38
2023-02-27T23:55:17.346Z,1.60
2023-02-27T23:57:19.117Z,1.65
2023-02-27T23:59:21.083Z,1.95
